Glenbrook, CT

7:28 PM EST op 18 december 2014 (GMT -0500)
Waterbury Avenue | Change Station
CLOSE
Current Station
Persoonlijk weerstation
Location: Stamford, CT
Geometrische hoogte: 46 ft
Nabije weerstations

Hoogte 46 ft 41.06 °N, 73.51 °W | Updated 5 seconds ago

Gedeeltelijk bewolkt
Gedeeltelijk bewolkt
36.3 °F
Voelt als 36 °F
N
2.2
Wind Variabel Wind van WZW
Gusts 8.3 mijl/u

Vandaag
Hoog -- | Laag -- °F
--% Kans op neerslag
Gisteren
Hoog -- | Laag -- °F
Precip. -- inches
7:14 AM 4:27 PM
Afnemende halvemaan, 11% visible
Druk 29.95 inches
Zicht 10.0 mijlen
Wolken Merendeels bewolkt 3100 ft
Gevoelstemperatuur 36 °F
Dauwpunt 30 °F
Vochtigheid 77%
Neerslag 0.00 inches
Dikte sneeuw Niet beschikbaar.
UV 0 van de 12
Pollen .10 van de 12
Luchtkwaliteit Niet beschikbaar.
Flu Activity Niet beschikbaar.
METAR KHPN 182356Z 32011G18KT 10SM BKN031 02/M03 A2993 RMK AO2 SLP141 T00221033 10044 20022 51003

More Conditions Fewer Conditions

Druk 29.95 inches
Zicht 10.0 mijlen
Wolken Merendeels bewolkt 3100 ft
Gevoelstemperatuur 36 °F
Dauwpunt 30 °F
Vochtigheid 77%
Neerslag 0.00 inches
Dikte sneeuw Niet beschikbaar.
UV 0 van de 12
Pollen .10 van de 12
Luchtkwaliteit Niet beschikbaar.
Flu Activity Niet beschikbaar.
METAR KHPN 182356Z 32011G18KT 10SM BKN031 02/M03 A2993 RMK AO2 SLP141 T00221033 10044 20022 51003

More Conditions Fewer Conditions

10-Day Weather Forecast

Almanac

Astronomie

Dec. 18, 2014 Opkomst Ondergang
Werkelijke tijd
Burgerlijke schemering
Nautische schemering
Astronomische schemering
Maan
Golflengte van het zichtbare licht
Daglengte
Tomorrow will be .
, % of the Moon is Illuminated

Extremen vandaag

State Highs State Lows

Community

WunderPhotos

Upload Photos

1,779,016 foto’s ge-upload!

WunderBlogs® & News

Nearby

Luchtkwaliteit

  Luchtkwaliteit LK-index Verontreinigende stof
Not available.

Dikte sneeuw

Station Depth Geometrische hoogte

Aardbevingen

Stad Distance Mag. Time & Date
Minimum magnitude displayed is 2.5.

Watertemperatuur langs de kust

Plaats Temperatuur

Nabije weerstations